Time;durP1;ratioP1;P1;durP2;ratioP2;P2;SDS_P1;SDS_P2;PMS_P1;PMS_P2;Temp;Humidity;BMP_temperature;BMP_pressure;BME280_temperature;BME280_humidity;BME280_pressure;Samples;Min_cycle;Max_cycle;Signal;HPM_P1;HPM_P2
2021/05/29 00:02:11;;;;;;;5.70;4.60;;;;;;;12.61;79.81;99194.59;4989237;28;105421;-71
2021/05/29 00:04:40;;;;;;;5.37;4.67;;;;;;;12.39;81.00;99194.44;4988988;28;102898;-71
2021/05/29 00:07:08;;;;;;;4.67;4.17;;;;;;;12.22;79.55;99195.66;4989493;28;102748;-72
2021/05/29 00:09:36;;;;;;;8.80;4.80;;;;;;;12.32;78.74;99194.06;4988757;28;104661;-71
2021/05/29 00:12:06;;;;;;;3.27;2.97;;;;;;;12.52;77.90;99195.28;4988846;28;103096;-73
2021/05/29 00:14:34;;;;;;;4.00;2.77;;;;;;;12.73;76.01;99193.72;4983721;28;103052;-71
2021/05/29 00:17:02;;;;;;;5.33;4.13;;;;;;;12.53;78.12;99189.00;4969383;28;103051;-72
2021/05/29 00:19:30;;;;;;;5.43;4.00;;;;;;;12.55;78.43;99179.13;4968415;28;109117;-73
2021/05/29 00:21:57;;;;;;;4.33;3.80;;;;;;;12.66;78.58;99174.75;4968885;28;103235;-72
2021/05/29 00:24:26;;;;;;;4.57;3.20;;;;;;;12.77;77.89;99177.44;4983628;28;103147;-71
2021/05/29 00:26:54;;;;;;;4.20;3.83;;;;;;;12.80;78.91;99179.03;4988910;28;102801;-72
2021/05/29 00:29:21;;;;;;;4.53;4.00;;;;;;;12.63;80.63;99182.91;4988096;28;104219;-73
2021/05/29 00:31:51;;;;;;;5.90;4.50;;;;;;;12.48;81.97;99169.94;4988641;28;103740;-72
2021/05/29 00:34:18;;;;;;;7.03;5.03;;;;;;;12.36;82.49;99166.38;4988775;28;103230;-71
2021/05/29 00:36:46;;;;;;;8.33;6.60;;;;;;;11.89;84.87;99156.53;4973784;28;102992;-71
2021/05/29 00:39:13;;;;;;;6.53;5.93;;;;;;;11.80;85.73;99154.53;4973800;28;104038;-72
2021/05/29 00:41:42;;;;;;;6.17;5.57;;;;;;;11.97;85.20;99155.97;4987304;28;103697;-72
2021/05/29 00:44:14;;;;;;;5.83;5.33;;;;;;;12.09;83.99;99161.28;4988384;28;102974;-72
2021/05/29 00:46:42;;;;;;;6.03;5.43;;;;;;;12.03;83.65;99159.06;4970858;28;103329;-72
2021/05/29 00:49:10;;;;;;;4.60;4.20;;;;;;;12.10;82.82;99159.44;4988199;28;103423;-72
2021/05/29 00:51:37;;;;;;;4.50;4.10;;;;;;;12.01;83.38;99155.66;4972397;28;103930;-72
2021/05/29 00:54:05;;;;;;;4.03;3.20;;;;;;;12.23;81.89;99156.78;4987859;28;102521;-73
2021/05/29 00:56:33;;;;;;;3.37;2.60;;;;;;;12.39;79.60;99154.72;4988298;28;102794;-72
2021/05/29 00:59:02;;;;;;;5.03;3.53;;;;;;;12.51;79.51;99148.53;4985928;28;103278;-72
2021/05/29 01:01:30;;;;;;;3.90;3.53;;;;;;;12.53;79.53;99152.75;4970609;28;103608;-71
2021/05/29 01:03:57;;;;;;;4.13;3.73;;;;;;;12.40;81.08;99149.31;4977251;28;102893;-72
2021/05/29 01:06:25;;;;;;;4.50;4.07;;;;;;;12.34;81.55;99143.59;4979043;28;103327;-72
2021/05/29 01:08:52;;;;;;;5.30;3.70;;;;;;;12.32;81.22;99140.22;4987408;28;102985;-72
2021/05/29 01:11:20;;;;;;;4.20;3.80;;;;;;;12.31;81.14;99147.31;4971968;28;103709;-71
2021/05/29 01:13:48;;;;;;;4.77;4.27;;;;;;;12.35;81.04;99146.13;4970534;28;102625;-71
2021/05/29 01:16:30;;;;;;;5.33;4.93;;;;;;;11.87;83.37;99155.81;4970195;28;103514;-71
2021/05/29 01:18:58;;;;;;;4.40;4.00;;;;;;;11.47;84.61;99156.84;4987962;28;103461;-72
2021/05/29 01:21:25;;;;;;;4.40;4.00;;;;;;;11.58;84.27;99160.44;4969787;28;103681;-72
2021/05/29 01:23:54;;;;;;;4.83;4.30;;;;;;;11.55;83.76;99155.34;4987884;28;102970;-74
2021/05/29 01:26:22;;;;;;;4.70;4.30;;;;;;;11.68;83.67;99149.22;4987730;28;102947;-72
2021/05/29 01:28:54;;;;;;;3.67;3.20;;;;;;;11.84;82.78;99150.72;4987884;28;103919;-72
2021/05/29 01:31:26;;;;;;;4.13;3.17;;;;;;;12.00;81.57;99151.31;4969769;28;105767;-72
2021/05/29 01:33:56;;;;;;;4.00;3.60;;;;;;;12.12;80.57;99149.59;4983314;28;103015;-72
2021/05/29 01:36:24;;;;;;;3.50;3.20;;;;;;;12.08;81.48;99154.28;4958817;28;103281;-73
2021/05/29 01:38:52;;;;;;;3.27;2.97;;;;;;;12.10;80.91;99152.34;4977053;28;104333;-71
2021/05/29 01:41:23;;;;;;;4.57;3.50;;;;;;;12.09;80.82;99149.81;4983259;28;103966;-72
2021/05/29 01:43:52;;;;;;;3.97;3.57;;;;;;;11.98;81.96;99160.34;4977980;28;102942;-71
2021/05/29 01:46:21;;;;;;;4.83;3.97;;;;;;;11.81;82.24;99160.66;4979630;28;102913;-72
2021/05/29 01:48:50;;;;;;;5.27;4.10;;;;;;;11.48;84.13;99158.53;4971638;28;104023;-72
2021/05/29 01:51:20;;;;;;;4.00;3.60;;;;;;;11.60;83.72;99155.88;4982588;28;103158;-72
2021/05/29 01:53:48;;;;;;;3.50;3.20;;;;;;;11.71;83.44;99152.50;4987636;28;102806;-72
2021/05/29 01:56:16;;;;;;;4.53;3.87;;;;;;;11.62;82.74;99150.50;4987684;28;102931;-72
2021/05/29 01:58:46;;;;;;;4.90;3.70;;;;;;;11.64;83.20;99149.44;4952621;28;107215;-71
2021/05/29 02:01:15;;;;;;;4.90;3.60;;;;;;;11.75;82.64;99151.34;4981981;28;103830;-72
2021/05/29 02:03:45;;;;;;;3.03;2.83;;;;;;;11.78;83.22;99148.50;4985044;28;102738;-72
2021/05/29 02:06:13;;;;;;;3.20;2.87;;;;;;;11.86;82.38;99148.81;4981829;28;102975;-71
2021/05/29 02:08:40;;;;;;;3.33;2.70;;;;;;;11.90;81.22;99152.91;4966669;28;103947;-73
2021/05/29 02:11:08;;;;;;;3.33;2.47;;;;;;;12.01;80.65;99154.81;4981563;28;104324;-71
2021/05/29 02:13:38;;;;;;;2.60;2.40;;;;;;;12.05;80.71;99154.47;4982520;28;103182;-72
2021/05/29 02:16:09;;;;;;;4.27;3.40;;;;;;;12.01;81.30;99144.22;4987072;28;102999;-71
2021/05/29 02:18:37;;;;;;;2.97;2.77;;;;;;;12.01;81.42;99153.00;4987660;28;104239;-72
2021/05/29 02:21:07;;;;;;;4.00;3.60;;;;;;;11.70;84.03;99158.78;4990530;28;103749;-74
2021/05/29 02:23:37;;;;;;;4.63;3.60;;;;;;;11.72;83.91;99151.56;4990909;28;103601;-72
2021/05/29 02:26:06;;;;;;;6.10;3.70;;;;;;;11.55;85.22;99154.50;4973756;28;102856;-72
2021/05/29 02:28:35;;;;;;;3.37;2.70;;;;;;;11.59;85.33;99163.94;4962959;28;105462;-72
2021/05/29 02:31:04;;;;;;;5.03;4.03;;;;;;;11.51;85.62;99156.50;4989928;28;104438;-71
2021/05/29 02:33:33;;;;;;;4.67;4.27;;;;;;;11.52;85.09;99160.00;4990080;28;103144;-71
2021/05/29 02:36:01;;;;;;;5.83;4.17;;;;;;;11.24;86.87;99166.34;4978831;28;102942;-72
2021/05/29 02:38:29;;;;;;;4.07;3.70;;;;;;;11.34;86.32;99166.56;4989837;28;103888;-72
2021/05/29 02:40:57;;;;;;;4.60;3.70;;;;;;;11.50;85.02;99165.41;4988750;28;104087;-71
2021/05/29 02:43:24;;;;;;;4.57;4.03;;;;;;;11.08;87.51;99170.97;4989856;28;103114;-72
2021/05/29 02:45:52;;;;;;;3.57;3.20;;;;;;;11.18;86.80;99171.19;4971279;28;103288;-74
2021/05/29 02:48:20;;;;;;;3.63;3.33;;;;;;;11.32;85.48;99181.69;4971343;28;106381;-72
2021/05/29 02:50:48;;;;;;;4.30;4.00;;;;;;;11.13;86.10;99178.59;4978113;28;103303;-71
2021/05/29 02:53:17;;;;;;;4.53;4.10;;;;;;;10.78;87.98;99179.13;4985920;28;103249;-70
2021/05/29 02:55:46;;;;;;;4.93;4.43;;;;;;;10.85;87.73;99180.41;4990357;28;103129;-70
2021/05/29 02:58:14;;;;;;;4.80;4.37;;;;;;;10.66;87.98;99185.22;4989586;28;103942;-70
2021/05/29 03:00:44;;;;;;;5.07;4.00;;;;;;;10.75;87.88;99189.88;4989477;28;110825;-71
2021/05/29 03:03:12;;;;;;;2.97;2.77;;;;;;;10.87;87.29;99186.44;4990201;28;102940;-70
2021/05/29 03:05:41;;;;;;;4.17;3.87;;;;;;;10.86;86.58;99197.13;4990077;28;102991;-71
2021/05/29 03:08:11;;;;;;;2.97;2.77;;;;;;;11.01;84.86;99186.38;4989217;28;103751;-71
2021/05/29 03:10:40;;;;;;;4.70;4.10;;;;;;;10.67;87.13;99193.97;4976725;28;103401;-71
2021/05/29 03:13:08;;;;;;;5.43;4.23;;;;;;;10.70;87.36;99191.97;4971201;28;102549;-70
2021/05/29 03:15:36;;;;;;;2.97;2.77;;;;;;;10.86;85.68;99187.38;4988965;28;103233;-71
2021/05/29 03:18:05;;;;;;;3.13;2.93;;;;;;;10.99;85.28;99196.22;4989562;28;103811;-70
2021/05/29 03:20:34;;;;;;;4.80;4.33;;;;;;;10.96;85.02;99188.50;4978911;28;104132;-70
2021/05/29 03:23:02;;;;;;;3.60;3.30;;;;;;;11.01;85.02;99196.97;4969781;28;102699;-71
2021/05/29 03:25:30;;;;;;;4.30;3.80;;;;;;;11.07;84.23;99198.34;4981547;28;103094;-72
2021/05/29 03:27:58;;;;;;;3.97;3.33;;;;;;;11.04;84.75;99195.91;4982821;28;103981;-72
2021/05/29 03:30:28;;;;;;;5.03;4.60;;;;;;;10.65;87.51;99198.50;4969703;28;109546;-75
2021/05/29 03:32:57;;;;;;;5.30;4.17;;;;;;;10.34;90.50;99200.47;4970515;28;102578;-77
2021/05/29 03:35:25;;;;;;;5.20;4.70;;;;;;;10.35;90.39;99209.25;4982893;28;103031;-76
2021/05/29 03:37:54;;;;;;;6.23;4.73;;;;;;;10.56;88.74;99205.25;4989327;28;103887;-76
2021/05/29 03:40:21;;;;;;;5.60;5.10;;;;;;;10.13;91.72;99211.56;4987661;28;104950;-75
2021/05/29 03:42:50;;;;;;;5.30;4.80;;;;;;;10.38;90.43;99217.00;4985716;28;102809;-75
2021/05/29 03:45:20;;;;;;;6.83;4.93;;;;;;;10.38;89.05;99217.00;4966969;28;102908;-75
2021/05/29 03:47:48;;;;;;;5.27;4.60;;;;;;;10.27;89.91;99211.53;4988140;28;103994;-75
2021/05/29 03:50:17;;;;;;;4.90;4.47;;;;;;;10.47;88.96;99216.38;4988875;28;103767;-75
2021/05/29 03:52:45;;;;;;;7.00;5.33;;;;;;;10.32;89.98;99218.22;4989261;28;102992;-75
2021/05/29 03:55:15;;;;;;;5.07;4.67;;;;;;;10.52;88.77;99209.03;4989978;28;103129;-76
2021/05/29 03:57:43;;;;;;;4.40;4.00;;;;;;;10.74;86.76;99219.06;4970804;28;107402;-75
2021/05/29 04:00:14;;;;;;;5.30;4.80;;;;;;;10.59;88.92;99230.63;4989221;28;104293;-75
2021/05/29 04:02:42;;;;;;;3.87;3.57;;;;;;;10.70;88.19;99228.97;4982954;28;103330;-75
2021/05/29 04:05:12;;;;;;;5.23;4.27;;;;;;;10.82;87.32;99232.63;4968981;28;103111;-75
2021/05/29 04:07:40;;;;;;;5.50;4.83;;;;;;;10.83;87.83;99229.91;4985971;28;104793;-75
2021/05/29 04:10:09;;;;;;;4.40;3.70;;;;;;;10.99;86.38;99230.59;4985663;28;103361;-76
2021/05/29 04:12:37;;;;;;;4.13;3.73;;;;;;;11.14;85.40;99230.53;4985010;28;103150;-74
2021/05/29 04:15:07;;;;;;;4.20;3.77;;;;;;;11.16;85.52;99236.56;4987127;28;103154;-75
2021/05/29 04:17:35;;;;;;;3.83;3.53;;;;;;;11.11;85.72;99233.38;4989816;28;103191;-76
2021/05/29 04:20:03;;;;;;;4.17;3.23;;;;;;;11.15;85.86;99234.84;4971246;28;103739;-75
2021/05/29 04:22:31;;;;;;;3.50;3.20;;;;;;;11.18;85.38;99230.22;4986470;28;103022;-75
2021/05/29 04:24:59;;;;;;;3.90;3.17;;;;;;;11.26;84.54;99221.75;4986895;28;102916;-75
2021/05/29 04:27:27;;;;;;;3.40;3.10;;;;;;;11.29;85.15;99237.44;4987847;28;110603;-75
2021/05/29 04:29:54;;;;;;;4.17;3.80;;;;;;;11.24;85.38;99228.97;4987863;28;104121;-75
2021/05/29 04:32:22;;;;;;;4.30;3.90;;;;;;;11.36;84.91;99236.09;4987733;28;102811;-75
2021/05/29 04:34:50;;;;;;;5.60;4.43;;;;;;;11.27;85.99;99239.34;4966996;28;103750;-75
2021/05/29 04:37:18;;;;;;;4.40;4.00;;;;;;;11.38;85.00;99242.97;4981629;28;103921;-76
2021/05/29 04:39:46;;;;;;;3.40;3.20;;;;;;;11.51;84.32;99237.69;4974021;28;103313;-75
2021/05/29 04:42:13;;;;;;;4.70;4.20;;;;;;;11.55;84.03;99240.03;4981732;28;103483;-75
2021/05/29 04:44:41;;;;;;;6.40;5.53;;;;;;;11.30;86.21;99244.44;4984685;28;102956;-74
2021/05/29 04:47:08;;;;;;;5.27;4.73;;;;;;;11.28;86.77;99244.53;4968328;28;104942;-75
2021/05/29 04:49:36;;;;;;;6.93;4.80;;;;;;;11.34;86.20;99244.09;4972743;28;103768;-73
2021/05/29 04:52:05;;;;;;;4.30;3.90;;;;;;;11.46;85.38;99245.09;4967406;28;102923;-75
2021/05/29 04:54:33;;;;;;;4.67;4.07;;;;;;;11.39;84.96;99249.09;4983987;28;103966;-76
2021/05/29 04:57:00;;;;;;;5.27;4.43;;;;;;;11.44;85.58;99247.00;4984157;28;104649;-75
2021/05/29 04:59:31;;;;;;;5.03;3.73;;;;;;;11.49;83.19;99244.88;4985085;28;103652;-77
2021/05/29 05:01:59;;;;;;;3.97;3.67;;;;;;;11.60;82.28;99247.66;4965714;28;102777;-77
2021/05/29 05:04:26;;;;;;;3.97;3.57;;;;;;;11.92;81.74;99248.13;4985043;28;102929;-74
2021/05/29 05:06:53;;;;;;;4.77;4.37;;;;;;;12.01;80.57;99240.38;4967312;28;103881;-74
2021/05/29 05:09:22;;;;;;;5.50;5.00;;;;;;;11.89;80.30;99243.06;4965906;28;103710;-74
2021/05/29 05:11:50;;;;;;;4.07;3.67;;;;;;;12.04;79.30;99242.81;4983497;28;102878;-79
2021/05/29 05:14:17;;;;;;;8.27;5.87;;;;;;;11.91;80.10;99251.72;4974661;28;102967;-75
2021/05/29 05:16:45;;;;;;;7.53;6.10;;;;;;;11.90;81.70;99250.88;4984635;28;103870;-76
2021/05/29 05:19:12;;;;;;;5.00;3.80;;;;;;;12.00;79.62;99251.09;4985448;28;103955;-74
2021/05/29 05:21:40;;;;;;;3.53;3.23;;;;;;;12.10;78.64;99247.69;4985699;28;103040;-77
2021/05/29 05:24:08;;;;;;;3.43;3.10;;;;;;;12.26;78.25;99247.47;4980393;28;104324;-77
2021/05/29 05:26:36;;;;;;;2.93;2.67;;;;;;;12.54;77.08;99247.22;4963600;28;105261;-75
2021/05/29 05:29:04;;;;;;;3.80;3.50;;;;;;;12.30;77.16;99251.59;4966846;28;103171;-76
2021/05/29 05:31:32;;;;;;;5.77;3.73;;;;;;;12.25;76.70;99260.81;4972928;28;103114;-76
2021/05/29 05:34:06;;;;;;;3.73;3.37;;;;;;;12.30;76.67;99253.38;4958356;28;103072;-76
2021/05/29 05:36:34;;;;;;;4.93;3.40;;;;;;;12.26;77.44;99257.22;4973895;28;104994;-75
2021/05/29 05:39:03;;;;;;;3.77;3.37;;;;;;;12.58;77.55;99259.28;4973191;28;103820;-76
2021/05/29 05:41:30;;;;;;;3.70;3.40;;;;;;;12.53;76.64;99263.22;4973350;28;103209;-77
2021/05/29 05:43:59;;;;;;;4.20;3.57;;;;;;;12.41;76.74;99266.72;4972270;28;103505;-77
2021/05/29 05:46:26;;;;;;;5.90;3.77;;;;;;;12.47;77.44;99271.59;4946063;28;104834;-76
2021/05/29 05:48:54;;;;;;;8.43;3.60;;;;;;;12.56;77.77;99268.28;4974051;28;103889;-76
2021/05/29 05:51:22;;;;;;;2.63;2.43;;;;;;;12.86;76.44;99268.75;4968640;28;103047;-76
2021/05/29 05:53:50;;;;;;;3.70;3.17;;;;;;;12.77;74.71;99266.78;4983082;28;103065;-74
2021/05/29 05:56:25;;;;;;;4.07;3.10;;;;;;;12.88;75.19;99266.84;4963747;28;109334;-75
2021/05/29 05:58:55;;;;;;;3.63;3.00;;;;;;;12.96;75.30;99264.47;4982037;28;103654;-73
2021/05/29 06:01:24;;;;;;;3.17;2.93;;;;;;;12.83;74.10;99268.97;4972411;28;102692;-74
2021/05/29 06:03:53;;;;;;;3.63;3.13;;;;;;;13.09;74.88;99269.75;4960715;28;102971;-74
2021/05/29 06:06:20;;;;;;;2.60;2.40;;;;;;;13.51;72.41;99266.56;4963004;28;103882;-74
2021/05/29 06:08:48;;;;;;;2.30;2.10;;;;;;;13.67;71.39;99261.78;4981598;28;103625;-75
2021/05/29 06:11:16;;;;;;;2.67;1.80;;;;;;;13.92;70.23;99266.88;4982245;28;102900;-74
2021/05/29 06:19:19;;;;;;;2.43;2.23;;;;;;;14.04;68.09;99259.78;5001789;28;102993;-80
2021/05/29 06:21:50;;;;;;;2.50;2.30;;;;;;;14.34;67.97;99261.91;4989309;28;102994;-78
2021/05/29 06:24:19;;;;;;;4.23;2.50;;;;;;;14.20;68.07;99270.94;4980944;28;102583;-78
2021/05/29 06:26:47;;;;;;;4.47;2.40;;;;;;;14.49;67.70;99277.50;4986492;28;104010;-78
2021/05/29 06:29:16;;;;;;;3.37;2.50;;;;;;;14.67;66.63;99279.66;4987158;28;103828;-79
2021/05/29 06:32:04;;;;;;;2.53;2.33;;;;;;;14.34;68.14;99269.88;4987888;28;102550;-79
2021/05/29 06:34:32;;;;;;;2.80;2.30;;;;;;;14.54;67.53;99274.44;4987531;28;102619;-78
2021/05/29 06:37:08;;;;;;;3.57;2.33;;;;;;;14.69;66.66;99283.88;4986707;28;103213;-79
2021/05/29 06:39:37;;;;;;;2.63;2.43;;;;;;;14.76;66.74;99284.25;4969133;28;105455;-79
2021/05/29 06:42:05;;;;;;;1.90;1.80;;;;;;;15.18;66.15;99286.09;4986325;28;102501;-79
2021/05/29 06:44:34;;;;;;;2.57;2.37;;;;;;;15.00;65.88;99290.22;4969241;28;103562;-79
2021/05/29 06:47:11;;;;;;;2.63;2.07;;;;;;;14.67;64.24;99293.81;4986953;28;103898;-79
2021/05/29 06:49:39;;;;;;;3.53;2.43;;;;;;;14.50;65.10;99295.13;4987138;28;103359;-79
2021/05/29 06:52:09;;;;;;;3.03;1.90;;;;;;;14.78;64.84;99292.94;4986886;28;102477;-79
2021/05/29 06:54:56;;;;;;;3.00;1.83;;;;;;;14.91;64.68;99294.47;4987700;28;103203;-79
2021/05/29 07:00:11;;;;;;;1.93;1.80;;;;;;;15.17;63.49;99297.69;4987362;28;104157;-79
2021/05/29 07:02:57;;;;;;;1.87;1.77;;;;;;;15.79;62.28;99297.00;4986794;28;102648;-79
2021/05/29 07:05:34;;;;;;;2.07;1.33;;;;;;;16.06;62.62;99303.50;4987532;28;102581;-79
2021/05/29 07:08:27;;;;;;;2.50;1.73;;;;;;;16.14;62.22;99298.34;4989945;28;103815;-78
2021/05/29 07:49:08;;;;;;;2.40;2.07;;;;;;;17.95;54.49;99275.75;4986090;28;104017;-79
2021/05/29 07:51:38;;;;;;;4.83;1.90;;;;;;;17.67;54.10;99271.28;4988381;28;102705;-79
2021/05/29 07:54:34;;;;;;;2.17;1.98;;;;;;;18.34;53.05;99272.97;4989987;28;103136;-79
2021/05/29 07:57:11;;;;;;;2.50;2.30;;;;;;;17.76;53.48;99270.47;4989949;28;103744;-79
2021/05/29 08:00:21;;;;;;;3.28;2.10;;;;;;;17.99;53.39;99270.97;4990489;28;103369;-79
2021/05/29 08:02:56;;;;;;;4.45;2.22;;;;;;;17.89;54.09;99268.31;4987719;28;102614;-79
2021/05/29 08:05:26;;;;;;;2.65;1.98;;;;;;;18.02;53.70;99275.19;4990314;28;102559;-78
2021/05/29 08:08:13;;;;;;;3.50;2.30;;;;;;;18.76;51.61;99271.56;4990407;28;103898;-79
2021/05/29 08:11:00;;;;;;;2.03;1.83;;;;;;;18.37;49.69;99270.88;4990899;28;104074;-79
2021/05/29 08:13:46;;;;;;;1.90;1.60;;;;;;;19.47;49.23;99266.34;4990536;28;102632;-79
2021/05/29 08:16:33;;;;;;;2.25;1.58;;;;;;;19.26;49.52;99268.44;4989812;28;102551;-78
2021/05/29 08:19:25;;;;;;;2.70;1.58;;;;;;;18.75;48.30;99275.22;4987872;28;109473;-79
2021/05/29 08:21:54;;;;;;;1.85;1.30;;;;;;;19.42;46.65;99264.13;4988301;28;103277;-80
2021/05/29 08:24:21;;;;;;;1.65;1.30;;;;;;;20.85;43.53;99266.28;4984971;28;102554;-80
2021/05/29 08:26:51;;;;;;;3.28;1.45;;;;;;;20.72;42.79;99271.25;4986893;28;103095;-79
2021/05/29 08:29:19;;;;;;;1.40;1.30;;;;;;;21.52;44.08;99275.22;4985793;28;105060;-81
2021/05/29 08:31:46;;;;;;;2.53;1.63;;;;;;;21.22;43.02;99272.13;4968263;28;107146;-79
2021/05/29 08:34:14;;;;;;;2.80;1.60;;;;;;;20.87;44.63;99275.03;4986279;28;102879;-79
2021/05/29 08:36:42;;;;;;;1.95;1.40;;;;;;;20.46;44.66;99270.47;4986850;28;102758;-80
2021/05/29 08:39:11;;;;;;;2.55;1.52;;;;;;;19.70;43.59;99283.66;4984499;28;104262;-79
2021/05/29 08:41:40;;;;;;;2.58;1.50;;;;;;;20.08;43.53;99277.91;4986968;28;103701;-80
2021/05/29 08:44:10;;;;;;;3.17;1.77;;;;;;;19.94;43.90;99280.31;4979187;28;103244;-79
2021/05/29 08:46:38;;;;;;;3.55;1.48;;;;;;;20.59;44.83;99279.78;4957314;28;103057;-81
2021/05/29 08:49:06;;;;;;;1.67;1.58;;;;;;;21.39;42.80;99270.31;4985770;28;103939;-78
2021/05/29 08:51:34;;;;;;;3.10;1.60;;;;;;;21.99;43.28;99272.72;4985360;28;104199;-83
2021/05/29 08:54:02;;;;;;;2.10;1.55;;;;;;;22.44;42.53;99273.84;4981491;28;103289;-83
2021/05/29 08:56:31;;;;;;;2.50;1.63;;;;;;;23.05;39.63;99277.66;4985755;28;102898;-81
2021/05/29 08:59:00;;;;;;;3.92;1.52;;;;;;;23.38;40.22;99275.69;4984282;28;104762;-85
2021/05/29 09:01:28;;;;;;;2.10;1.33;;;;;;;23.74;40.74;99273.22;4970288;28;104391;-82
2021/05/29 09:03:58;;;;;;;1.30;1.20;;;;;;;23.55;42.00;99277.25;4985802;28;102826;-81
2021/05/29 09:06:46;;;;;;;1.88;1.60;;;;;;;22.04;42.51;99271.22;4985759;28;102847;-82
2021/05/29 09:09:14;;;;;;;4.50;1.60;;;;;;;21.43;42.51;99276.19;4983703;28;103880;-82
2021/05/29 09:11:47;;;;;;;2.30;1.83;;;;;;;21.16;42.21;99275.50;4985812;28;103704;-80
2021/05/29 09:14:36;;;;;;;2.38;1.83;;;;;;;22.09;40.39;99276.09;4966676;28;102644;-79
2021/05/29 09:17:17;;;;;;;1.83;1.48;;;;;;;22.55;44.32;99269.94;4985377;28;103040;-82
2021/05/29 09:19:56;;;;;;;2.20;1.85;;;;;;;21.66;42.69;99271.88;4984254;28;103840;-80
2021/05/29 09:22:26;;;;;;;2.30;1.80;;;;;;;21.05;43.48;99278.44;4967763;28;106075;-83
2021/05/29 09:25:13;;;;;;;2.10;1.75;;;;;;;20.83;44.50;99279.03;4985907;28;102886;-82
2021/05/29 09:27:55;;;;;;;2.95;1.55;;;;;;;22.88;41.90;99278.75;4980729;28;103470;-83
2021/05/29 09:30:41;;;;;;;3.30;2.15;;;;;;;21.76;43.35;99270.69;4975677;28;104103;-79
2021/05/29 09:33:15;;;;;;;3.30;1.45;;;;;;;21.88;44.90;99271.22;4975767;28;105178;-82
2021/05/29 09:35:48;;;;;;;2.60;2.20;;;;;;;20.71;45.74;99286.56;4971737;28;103166;-86
2021/05/29 09:38:15;;;;;;;3.38;1.80;;;;;;;19.65;47.23;99286.78;4969340;28;103059;-86
2021/05/29 09:40:51;;;;;;;3.90;1.88;;;;;;;19.08;47.88;99289.88;4979010;28;103888;-87
2021/05/29 09:43:19;;;;;;;5.88;2.10;;;;;;;20.21;46.75;99294.44;4971158;28;103705;-89
2021/05/29 09:45:57;;;;;;;2.90;1.73;;;;;;;19.62;47.85;99291.63;4980905;28;103142;-85
2021/05/29 09:48:26;;;;;;;2.10;1.70;;;;;;;20.52;45.33;99296.69;4961070;28;103330;-85
2021/05/29 09:51:06;;;;;;;2.13;1.75;;;;;;;20.19;45.98;99285.69;4960858;28;103121;-79
2021/05/29 09:53:36;;;;;;;2.15;1.70;;;;;;;20.77;45.97;99279.69;4939729;28;104719;-87
2021/05/29 09:56:05;;;;;;;2.55;1.92;;;;;;;21.71;44.46;99280.28;4958520;28;103765;-86
2021/05/29 09:58:51;;;;;;;2.08;1.80;;;;;;;22.77;43.74;99287.22;4959280;28;103162;-86
2021/05/29 10:01:49;;;;;;;5.95;1.90;;;;;;;23.09;42.80;99284.41;4956915;28;105988;-87
2021/05/29 10:04:36;;;;;;;2.47;1.60;;;;;;;22.53;43.07;99272.81;4878897;28;104329;-87
2021/05/29 10:07:05;;;;;;;1.70;1.60;;;;;;;22.31;41.36;99289.69;4938171;28;103082;-89
2021/05/29 10:09:34;;;;;;;2.15;1.40;;;;;;;21.67;39.73;99278.94;4959095;28;103327;-89
2021/05/29 10:12:03;;;;;;;1.20;1.10;;;;;;;21.60;41.56;99286.81;4940918;28;113748;-89
2021/05/29 10:14:32;;;;;;;3.05;1.23;;;;;;;22.26;39.96;99288.53;4954333;28;107033;-88
2021/05/29 10:17:02;;;;;;;2.08;0.98;;;;;;;23.11;39.94;99285.06;4940743;28;103072;-89
2021/05/29 10:19:31;;;;;;;2.20;1.35;;;;;;;23.06;40.30;99284.75;4960110;28;103251;-86
2021/05/29 10:22:03;;;;;;;1.67;1.30;;;;;;;21.18;40.31;99283.38;4948445;28;103490;-85
2021/05/29 10:24:31;;;;;;;1.88;1.30;;;;;;;22.08;37.60;99277.94;4958352;28;104436;-86
2021/05/29 10:27:06;;;;;;;1.40;1.30;;;;;;;21.32;39.50;99280.91;4957161;28;103059;-86
2021/05/29 10:29:35;;;;;;;1.40;1.30;;;;;;;21.53;39.07;99284.97;4957725;28;102812;-88
2021/05/29 10:32:11;;;;;;;1.33;1.20;;;;;;;20.43;38.99;99290.44;4947342;28;104079;-86
2021/05/29 10:35:01;;;;;;;1.52;1.23;;;;;;;20.15;41.13;99289.69;4960118;28;104432;-86
2021/05/29 10:37:32;;;;;;;1.30;1.20;;;;;;;20.12;42.43;99306.13;4963023;28;103266;-89
2021/05/29 10:40:18;;;;;;;1.60;1.17;;;;;;;20.39;41.29;99296.25;4964365;28;103140;-87
2021/05/29 10:42:48;;;;;;;2.67;1.13;;;;;;;20.99;41.80;99283.63;4948654;28;103271;-88
2021/05/29 10:45:20;;;;;;;3.13;1.33;;;;;;;21.87;40.61;99281.16;4954648;28;104565;-72
2021/05/29 10:48:02;;;;;;;2.35;1.58;;;;;;;20.72;39.77;99290.03;4969131;28;103127;-82
2021/05/29 10:50:55;;;;;;;2.00;1.30;;;;;;;21.48;42.25;99280.06;4978133;28;104418;-78
2021/05/29 10:53:40;;;;;;;2.65;1.27;;;;;;;21.34;39.49;99283.41;4961839;28;105830;-83
2021/05/29 10:56:30;;;;;;;1.00;0.90;;;;;;;21.99;39.73;99273.56;4982971;28;106921;-82
2021/05/29 10:59:04;;;;;;;1.05;0.95;;;;;;;20.58;41.30;99285.28;4961510;28;103276;-85
2021/05/29 11:02:02;;;;;;;2.80;1.20;;;;;;;19.64;41.14;99284.25;4944637;28;102925;-86
2021/05/29 11:04:31;;;;;;;1.20;1.05;;;;;;;21.10;41.01;99275.31;4958988;28;103506;-84
2021/05/29 11:07:19;;;;;;;1.70;1.08;;;;;;;21.25;39.02;99271.81;4961814;28;107975;-83
2021/05/29 11:09:55;;;;;;;1.77;1.10;;;;;;;21.51;39.54;99273.53;4968658;28;103071;-81
2021/05/29 11:12:49;;;;;;;1.30;1.20;;;;;;;20.70;39.22;99286.69;4985240;28;102519;-79
2021/05/29 11:15:17;;;;;;;2.58;1.10;;;;;;;20.30;39.56;99281.09;4997671;28;103882;-81
2021/05/29 11:18:07;;;;;;;3.72;1.13;;;;;;;21.71;39.58;99269.50;5006589;28;103295;-82
2021/05/29 11:21:03;;;;;;;1.17;1.00;;;;;;;21.46;37.55;99265.97;5006455;28;103000;-79
2021/05/29 11:23:30;;;;;;;1.65;1.10;;;;;;;21.08;38.27;99272.75;4998063;28;103428;-83
2021/05/29 11:25:58;;;;;;;2.00;0.88;;;;;;;21.74;38.06;99255.75;4986881;28;103747;-83
2021/05/29 11:28:26;;;;;;;2.03;0.77;;;;;;;21.59;35.49;99265.47;4968255;28;109624;-81
2021/05/29 11:30:59;;;;;;;1.52;0.90;;;;;;;22.16;36.65;99269.00;4986860;28;102764;-82
2021/05/29 11:33:27;;;;;;;1.10;1.00;;;;;;;21.65;38.79;99268.34;4986632;28;102877;-80
2021/05/29 11:35:55;;;;;;;1.90;0.98;;;;;;;21.17;39.48;99269.09;4979826;28;104387;-85
2021/05/29 11:38:29;;;;;;;1.58;0.98;;;;;;;21.75;33.29;99254.75;4994461;28;104493;-80
2021/05/29 11:40:59;;;;;;;3.17;0.90;;;;;;;20.98;36.94;99266.66;4977033;28;103318;-84
2021/05/29 11:43:36;;;;;;;2.03;0.80;;;;;;;21.07;37.69;99265.72;4969260;28;103168;-80
2021/05/29 11:46:06;;;;;;;1.13;0.80;;;;;;;22.46;36.97;99261.03;4982081;28;103735;-83
2021/05/29 11:48:36;;;;;;;3.15;0.80;;;;;;;21.72;36.03;99252.38;4972704;28;105357;-83
2021/05/29 11:51:09;;;;;;;1.10;0.90;;;;;;;21.71;36.32;99250.69;4966283;28;102996;-79
2021/05/29 11:53:42;;;;;;;3.75;1.02;;;;;;;22.89;34.83;99248.97;4971143;28;103032;-78
2021/05/29 11:56:11;;;;;;;1.10;0.75;;;;;;;23.02;34.25;99251.91;4961083;28;107524;-79
2021/05/29 11:58:47;;;;;;;0.90;0.75;;;;;;;21.72;35.36;99260.44;4968498;28;103922;-79
2021/05/29 12:01:16;;;;;;;1.73;0.70;;;;;;;21.76;34.79;99245.63;4980679;28;103046;-79
2021/05/29 12:03:47;;;;;;;1.25;0.65;;;;;;;22.87;33.55;99253.69;4971043;28;103248;-79
2021/05/29 12:06:39;;;;;;;2.25;1.00;;;;;;;22.14;33.14;99250.38;4974850;28;104434;-80
2021/05/29 12:09:12;;;;;;;1.30;0.90;;;;;;;21.98;36.04;99250.38;4972665;28;104283;-79
2021/05/29 12:11:42;;;;;;;1.42;0.95;;;;;;;21.39;40.35;99248.81;4956368;28;103361;-81
2021/05/29 12:14:13;;;;;;;3.75;1.05;;;;;;;22.01;39.05;99244.66;4965870;28;103350;-80
2021/05/29 12:16:45;;;;;;;3.42;1.48;;;;;;;21.73;38.85;99240.59;4979176;28;104897;-79
2021/05/29 12:19:34;;;;;;;2.45;0.93;;;;;;;20.55;39.35;99259.59;4974895;28;103235;-80
2021/05/29 12:22:07;;;;;;;1.17;0.70;;;;;;;20.98;40.81;99258.59;4959924;28;103088;-81
2021/05/29 12:24:38;;;;;;;0.95;0.90;;;;;;;21.16;38.30;99254.00;4964205;28;103043;-80
2021/05/29 12:27:06;;;;;;;1.05;1.00;;;;;;;21.73;37.30;99251.34;4965209;28;105603;-82
2021/05/29 12:29:35;;;;;;;0.98;0.88;;;;;;;23.11;37.01;99233.84;4975473;28;103795;-82
2021/05/29 12:32:03;;;;;;;1.90;0.85;;;;;;;22.05;37.72;99240.63;4980645;28;102901;-76